Time;durP1;ratioP1;P1;durP2;ratioP2;P2;SDS_P1;SDS_P2;PMS_P1;PMS_P2;Temp;Humidity;BMP_temperature;BMP_pressure;BME280_temperature;BME280_humidity;BME280_pressure;Samples;Min_cycle;Max_cycle;Signal;HPM_P1;HPM_P2
2022/04/29 00:02:15;;;;;;;19.27;5.13;;;4.80;99.90;;;;;;5111598;28;20047;-80
2022/04/29 00:04:42;;;;;;;13.15;5.30;;;4.80;99.90;;;;;;5110661;28;20048;-80
2022/04/29 00:07:09;;;;;;;11.93;5.35;;;4.70;99.90;;;;;;5113925;28;20122;-79
2022/04/29 00:09:36;;;;;;;11.45;4.93;;;4.70;99.90;;;;;;5112364;28;20036;-79
2022/04/29 00:12:04;;;;;;;10.82;5.15;;;4.70;99.90;;;;;;5112215;28;20447;-79
2022/04/29 00:14:30;;;;;;;12.55;5.22;;;4.70;99.90;;;;;;5111677;28;20513;-80
2022/04/29 00:16:56;;;;;;;12.57;5.85;;;4.70;99.90;;;;;;5111433;28;20514;-80
2022/04/29 00:19:23;;;;;;;9.50;5.32;;;4.70;99.90;;;;;;5098068;28;20036;-80
2022/04/29 00:21:49;;;;;;;11.10;5.75;;;4.70;99.90;;;;;;5111656;28;20039;-79
2022/04/29 00:24:14;;;;;;;10.40;5.45;;;4.70;99.90;;;;;;5112722;28;20089;-79
2022/04/29 00:26:40;;;;;;;12.18;4.85;;;4.70;99.90;;;;;;5103046;28;20052;-80
2022/04/29 00:29:07;;;;;;;15.98;4.68;;;4.70;99.90;;;;;;5098210;28;20123;-79
2022/04/29 00:31:35;;;;;;;10.30;4.43;;;4.70;99.90;;;;;;5095302;28;20059;-79
2022/04/29 00:34:01;;;;;;;5.15;3.70;;;4.70;99.90;;;;;;5107679;28;20036;-79
2022/04/29 00:36:27;;;;;;;15.40;4.57;;;4.70;99.90;;;;;;5092063;28;20055;-79
2022/04/29 00:38:52;;;;;;;12.63;4.97;;;4.60;99.90;;;;;;5094758;28;20044;-79
2022/04/29 00:41:20;;;;;;;15.05;4.60;;;4.60;99.90;;;;;;5112678;28;20093;-79
2022/04/29 00:43:46;;;;;;;11.00;4.60;;;4.60;99.90;;;;;;5110843;28;20593;-79
2022/04/29 00:46:12;;;;;;;10.73;4.93;;;4.50;99.90;;;;;;5091878;28;20495;-79
2022/04/29 00:48:38;;;;;;;12.38;4.68;;;4.50;99.90;;;;;;5104166;28;20048;-79
2022/04/29 00:51:05;;;;;;;9.77;4.60;;;4.50;99.90;;;;;;5129653;28;20051;-79
2022/04/29 00:53:31;;;;;;;12.68;4.60;;;4.40;99.90;;;;;;5111245;28;20482;-80
2022/04/29 00:55:57;;;;;;;13.18;4.93;;;4.40;99.90;;;;;;5111205;28;20056;-80
2022/04/29 00:58:38;;;;;;;12.82;4.78;;;4.40;99.90;;;;;;5112574;28;20047;-79
2022/04/29 01:01:06;;;;;;;10.57;4.82;;;4.30;99.90;;;;;;5111565;28;20039;-79
2022/04/29 01:03:34;;;;;;;16.13;5.22;;;4.30;99.90;;;;;;5112863;28;20123;-80
2022/04/29 01:06:00;;;;;;;12.32;4.82;;;4.30;99.90;;;;;;5114128;28;20180;-80
2022/04/29 01:08:25;;;;;;;13.63;5.03;;;4.30;99.90;;;;;;5113962;28;20111;-79
2022/04/29 01:10:51;;;;;;;18.23;5.55;;;4.20;99.90;;;;;;5116135;28;20044;-79
2022/04/29 01:13:18;;;;;;;9.75;4.55;;;4.20;99.90;;;;;;5117113;28;20474;-79
2022/04/29 01:15:44;;;;;;;7.05;4.35;;;4.20;99.90;;;;;;5110387;28;20051;-80
2022/04/29 01:18:13;;;;;;;15.00;5.22;;;4.20;99.90;;;;;;5114471;28;20094;-79
2022/04/29 01:20:40;;;;;;;10.00;4.40;;;4.10;99.90;;;;;;5114380;28;20105;-79
2022/04/29 01:23:11;;;;;;;11.65;5.65;;;4.10;99.90;;;;;;5116015;28;20123;-79
2022/04/29 01:25:38;;;;;;;22.38;7.72;;;4.10;99.90;;;;;;5115238;28;20048;-80
2022/04/29 01:28:04;;;;;;;9.95;5.50;;;4.10;99.90;;;;;;5115681;28;20121;-80
2022/04/29 01:30:31;;;;;;;10.57;5.30;;;4.10;99.90;;;;;;5114579;28;20039;-80
2022/04/29 01:32:59;;;;;;;14.32;6.00;;;4.10;99.90;;;;;;5116785;27;20044;-80
2022/04/29 01:35:25;;;;;;;9.32;5.30;;;4.10;99.90;;;;;;5112419;28;20048;-80
2022/04/29 01:37:51;;;;;;;8.23;5.28;;;4.10;99.90;;;;;;5114497;28;20101;-79
2022/04/29 01:40:17;;;;;;;14.35;5.18;;;4.10;99.90;;;;;;5124266;27;20518;-79
2022/04/29 01:42:43;;;;;;;13.10;6.63;;;4.10;99.90;;;;;;5077987;28;20048;-80
2022/04/29 01:45:10;;;;;;;12.00;5.65;;;4.10;99.90;;;;;;5099165;28;20032;-80
2022/04/29 01:47:37;;;;;;;11.52;4.38;;;4.10;99.90;;;;;;5115135;28;20506;-79
2022/04/29 01:50:03;;;;;;;15.15;5.05;;;4.00;99.90;;;;;;5110768;28;20491;-80
2022/04/29 01:52:29;;;;;;;16.15;5.30;;;4.00;99.90;;;;;;5093651;28;20128;-80
2022/04/29 01:54:55;;;;;;;10.93;5.72;;;4.00;99.90;;;;;;5097851;28;20122;-79
2022/04/29 01:57:20;;;;;;;13.30;5.43;;;4.00;99.90;;;;;;5115474;28;20494;-80
2022/04/29 01:59:46;;;;;;;14.65;5.60;;;4.00;99.90;;;;;;5115046;28;20491;-79
2022/04/29 02:02:12;;;;;;;12.13;5.90;;;4.00;99.90;;;;;;5114156;28;20043;-80
2022/04/29 02:04:38;;;;;;;16.08;5.72;;;4.00;99.90;;;;;;5114282;28;20035;-80
2022/04/29 02:07:05;;;;;;;8.88;4.88;;;4.00;99.90;;;;;;5128297;27;20068;-79
2022/04/29 02:09:31;;;;;;;8.75;5.03;;;4.00;99.90;;;;;;5095486;28;20141;-80
2022/04/29 02:12:06;;;;;;;11.50;5.65;;;4.00;99.90;;;;;;5114990;28;20075;-80
2022/04/29 02:14:33;;;;;;;12.43;5.57;;;4.10;99.90;;;;;;5113539;28;20044;-79
2022/04/29 02:16:59;;;;;;;12.70;5.30;;;4.10;99.90;;;;;;5110115;28;20051;-80
2022/04/29 02:19:27;;;;;;;11.32;5.00;;;4.10;99.90;;;;;;5114858;28;20035;-80
2022/04/29 02:21:53;;;;;;;12.57;4.95;;;4.10;99.90;;;;;;5114241;28;20398;-80
2022/04/29 02:24:19;;;;;;;12.75;6.38;;;4.10;99.90;;;;;;5114445;28;20047;-80
2022/04/29 02:26:45;;;;;;;10.02;5.20;;;4.10;99.90;;;;;;5112554;28;20050;-80
2022/04/29 02:29:10;;;;;;;16.67;6.25;;;4.10;99.90;;;;;;5115747;28;20040;-80
2022/04/29 02:31:36;;;;;;;8.38;5.32;;;4.10;99.90;;;;;;5112822;28;20043;-80
2022/04/29 02:34:03;;;;;;;9.40;5.18;;;4.10;99.90;;;;;;5114538;28;20048;-80
2022/04/29 02:36:29;;;;;;;9.73;5.22;;;4.10;99.90;;;;;;5113349;28;20085;-80
2022/04/29 02:38:55;;;;;;;8.38;5.35;;;4.10;99.90;;;;;;5113251;28;20420;-80
2022/04/29 02:41:20;;;;;;;9.35;5.30;;;4.10;99.90;;;;;;5113642;28;20394;-79
2022/04/29 02:43:46;;;;;;;12.95;6.60;;;4.10;99.90;;;;;;5113846;28;20093;-80
2022/04/29 02:46:12;;;;;;;11.25;5.18;;;4.00;99.90;;;;;;5115296;28;20127;-80
2022/04/29 02:48:38;;;;;;;10.60;4.97;;;4.00;99.90;;;;;;5113420;28;20040;-80
2022/04/29 02:51:04;;;;;;;16.95;6.10;;;4.00;99.90;;;;;;5114189;28;20498;-80
2022/04/29 02:53:31;;;;;;;10.18;5.38;;;4.00;99.90;;;;;;5110847;28;20079;-79
2022/04/29 02:55:57;;;;;;;13.77;6.40;;;4.00;99.90;;;;;;5112898;28;20044;-80
2022/04/29 02:58:23;;;;;;;10.32;6.53;;;3.90;99.90;;;;;;5115135;28;20038;-80
2022/04/29 03:00:49;;;;;;;18.65;6.85;;;3.90;99.90;;;;;;5113041;28;20474;-80
2022/04/29 03:03:15;;;;;;;8.40;6.00;;;3.80;99.90;;;;;;5114939;28;20127;-80
2022/04/29 03:05:40;;;;;;;7.20;5.78;;;3.80;99.90;;;;;;5112196;28;20082;-80
2022/04/29 03:08:07;;;;;;;9.60;4.97;;;3.80;99.90;;;;;;5111949;28;20100;-80
2022/04/29 03:10:34;;;;;;;11.00;5.88;;;3.70;99.90;;;;;;5113531;28;20055;-80
2022/04/29 03:13:00;;;;;;;17.08;5.63;;;3.70;99.90;;;;;;5112719;28;20088;-80
2022/04/29 03:15:26;;;;;;;15.27;6.22;;;3.70;99.90;;;;;;5101430;28;20451;-80
2022/04/29 03:20:39;;;;;;;10.88;5.68;;;3.70;99.90;;;;;;5107596;28;20048;-79
2022/04/29 03:23:05;;;;;;;13.90;7.03;;;3.80;99.90;;;;;;5092144;28;20054;-80
2022/04/29 03:25:32;;;;;;;15.98;6.90;;;3.70;99.90;;;;;;5112246;28;20050;-80
2022/04/29 03:27:58;;;;;;;12.93;6.72;;;3.80;99.90;;;;;;5112161;28;20046;-80
2022/04/29 03:30:24;;;;;;;12.95;6.25;;;3.80;99.90;;;;;;5111433;28;20132;-80
2022/04/29 03:32:54;;;;;;;9.40;5.93;;;3.80;99.90;;;;;;5112286;28;20042;-80
2022/04/29 03:35:21;;;;;;;9.70;6.10;;;3.80;99.90;;;;;;5092796;28;20052;-80
2022/04/29 03:37:52;;;;;;;12.10;6.45;;;3.80;99.90;;;;;;5107873;28;20473;-80
2022/04/29 03:40:21;;;;;;;9.73;5.75;;;3.80;99.90;;;;;;5114460;28;20047;-80
2022/04/29 03:42:49;;;;;;;11.43;6.28;;;3.90;99.90;;;;;;5111073;28;20079;-80
2022/04/29 03:45:15;;;;;;;11.48;5.93;;;3.90;99.90;;;;;;5114213;28;20093;-80
2022/04/29 03:47:42;;;;;;;9.27;6.10;;;3.90;99.90;;;;;;5105231;28;20085;-80
2022/04/29 03:50:08;;;;;;;17.33;6.85;;;4.00;99.90;;;;;;5112052;28;20055;-80
2022/04/29 03:52:43;;;;;;;10.68;7.00;;;4.00;99.90;;;;;;5111666;28;20048;-80
2022/04/29 03:55:09;;;;;;;10.27;6.13;;;4.00;99.90;;;;;;5112924;28;20046;-80
2022/04/29 03:57:35;;;;;;;13.68;6.60;;;4.00;99.90;;;;;;5112106;28;20044;-80
2022/04/29 04:00:01;;;;;;;11.75;7.65;;;4.00;99.90;;;;;;5113008;28;20043;-80
2022/04/29 04:02:26;;;;;;;17.95;6.45;;;4.00;99.90;;;;;;5094755;28;20510;-80
2022/04/29 04:04:52;;;;;;;14.18;6.95;;;4.10;99.90;;;;;;5129075;27;20047;-80
2022/04/29 04:07:18;;;;;;;11.30;6.32;;;4.10;99.90;;;;;;5127444;28;20040;-80
2022/04/29 04:09:44;;;;;;;9.60;5.88;;;4.10;99.90;;;;;;5129724;27;20048;-80
2022/04/29 04:12:10;;;;;;;11.80;5.80;;;4.10;99.90;;;;;;5112013;28;20071;-80
2022/04/29 04:14:36;;;;;;;9.80;5.70;;;4.10;99.90;;;;;;5113872;28;20173;-80
2022/04/29 04:17:02;;;;;;;12.88;6.70;;;4.10;99.90;;;;;;5104485;28;20504;-80
2022/04/29 04:19:28;;;;;;;12.15;6.63;;;4.20;99.90;;;;;;5102702;28;20043;-80
2022/04/29 04:21:53;;;;;;;9.02;5.80;;;4.20;99.90;;;;;;5112625;28;20127;-80
2022/04/29 04:24:19;;;;;;;12.93;5.97;;;4.20;99.90;;;;;;5111182;28;20044;-80
2022/04/29 04:26:45;;;;;;;20.00;6.65;;;4.20;99.90;;;;;;5127461;28;20047;-80
2022/04/29 04:29:11;;;;;;;13.57;6.88;;;4.30;99.90;;;;;;5112207;28;20055;-80
2022/04/29 04:31:37;;;;;;;11.18;6.55;;;4.30;99.90;;;;;;5112756;28;20406;-80
2022/04/29 04:34:49;;;;;;;7.88;5.95;;;4.30;99.90;;;;;;5111688;28;20044;-80
2022/04/29 04:36:52;;;;;;;14.93;7.28;;;4.30;99.90;;;;;;5112838;28;20039;-80
2022/04/29 04:39:18;;;;;;;12.05;7.07;;;4.40;99.90;;;;;;5114841;28;20437;-80
2022/04/29 04:41:44;;;;;;;17.40;7.38;;;4.40;99.90;;;;;;5116822;28;20402;-80
2022/04/29 04:44:10;;;;;;;14.32;6.82;;;4.50;99.90;;;;;;5115301;28;20043;-80
2022/04/29 04:46:40;;;;;;;12.82;7.15;;;4.50;99.90;;;;;;5115734;28;20882;-80
2022/04/29 04:49:06;;;;;;;11.23;6.63;;;4.60;99.90;;;;;;5117441;28;20047;-80
2022/04/29 04:51:31;;;;;;;14.90;7.22;;;4.70;99.90;;;;;;5116648;28;20055;-80
2022/04/29 04:53:57;;;;;;;14.65;8.15;;;4.80;99.90;;;;;;5115445;28;20197;-80
2022/04/29 04:56:23;;;;;;;13.35;7.35;;;4.90;99.90;;;;;;5115059;28;20047;-80
2022/04/29 04:58:49;;;;;;;10.13;6.78;;;5.00;99.90;;;;;;5104146;28;20043;-80
2022/04/29 05:01:15;;;;;;;9.82;6.35;;;5.00;99.90;;;;;;5116186;28;20036;-80
2022/04/29 05:03:43;;;;;;;9.48;6.38;;;5.10;99.90;;;;;;5117124;28;20110;-80
2022/04/29 05:06:09;;;;;;;11.07;7.28;;;5.20;99.90;;;;;;5117198;28;20078;-80
2022/04/29 05:08:35;;;;;;;19.13;7.35;;;5.30;99.90;;;;;;5116508;28;20040;-80
2022/04/29 05:11:01;;;;;;;14.32;7.32;;;5.40;99.90;;;;;;5115961;28;20090;-79
2022/04/29 05:13:27;;;;;;;11.40;7.45;;;5.40;99.90;;;;;;5114552;28;20093;-80
2022/04/29 05:15:52;;;;;;;10.30;7.43;;;5.50;99.90;;;;;;5115110;28;20126;-80
2022/04/29 05:18:18;;;;;;;11.15;6.88;;;5.60;99.90;;;;;;5115587;28;20122;-80
2022/04/29 05:20:44;;;;;;;14.82;7.38;;;5.70;99.90;;;;;;5116800;28;20043;-80
2022/04/29 05:23:10;;;;;;;12.73;6.90;;;5.80;99.90;;;;;;5116052;28;20047;-80
2022/04/29 05:25:36;;;;;;;20.13;6.43;;;5.80;99.90;;;;;;5115443;28;20055;-80
2022/04/29 05:28:02;;;;;;;8.15;7.25;;;5.90;99.90;;;;;;5116409;27;20127;-81
2022/04/29 05:30:30;;;;;;;17.60;8.13;;;5.90;99.90;;;;;;5114803;28;20055;-80
2022/04/29 05:32:56;;;;;;;11.30;7.07;;;6.00;99.90;;;;;;5115759;28;20043;-81
2022/04/29 05:35:22;;;;;;;14.13;6.35;;;6.00;99.90;;;;;;5114348;28;20406;-80
2022/04/29 05:37:48;;;;;;;13.00;7.47;;;6.10;99.90;;;;;;5109467;28;20044;-80
2022/04/29 05:42:59;;;;;;;14.43;6.68;;;6.20;99.90;;;;;;5095698;28;20040;-80
2022/04/29 05:45:25;;;;;;;10.93;6.85;;;6.30;99.90;;;;;;5096028;28;20495;-81
2022/04/29 05:47:51;;;;;;;13.52;6.50;;;6.30;99.90;;;;;;5095380;28;20084;-81
2022/04/29 05:50:16;;;;;;;13.00;6.80;;;6.40;99.90;;;;;;5077304;28;20080;-81
2022/04/29 05:52:42;;;;;;;9.57;7.10;;;6.40;99.90;;;;;;5095573;28;20542;-80
2022/04/29 05:55:08;;;;;;;12.55;6.60;;;6.40;99.90;;;;;;5095862;28;20047;-80
2022/04/29 05:57:34;;;;;;;18.80;7.45;;;6.50;99.90;;;;;;5120315;27;20044;-80
2022/04/29 06:00:00;;;;;;;12.77;7.55;;;6.60;99.90;;;;;;5114922;28;20093;-80
2022/04/29 06:02:26;;;;;;;12.23;6.65;;;6.70;99.90;;;;;;5106648;28;20047;-81
2022/04/29 06:04:52;;;;;;;14.35;7.28;;;6.70;99.90;;;;;;5093770;28;20040;-80
2022/04/29 06:07:18;;;;;;;10.18;7.40;;;6.70;99.90;;;;;;5094437;28;20445;-80
2022/04/29 06:09:44;;;;;;;13.55;7.32;;;6.80;99.90;;;;;;5095418;28;20040;-81
2022/04/29 06:12:10;;;;;;;10.77;6.93;;;6.80;99.90;;;;;;5095569;28;20039;-79
2022/04/29 06:14:36;;;;;;;12.95;7.25;;;6.90;99.90;;;;;;5108533;28;20491;-80
2022/04/29 06:17:02;;;;;;;9.77;6.97;;;6.90;99.90;;;;;;5115503;27;20452;-79
2022/04/29 06:19:28;;;;;;;11.80;6.63;;;7.00;99.90;;;;;;5091340;28;20044;-80
2022/04/29 06:21:54;;;;;;;11.25;6.93;;;7.00;99.90;;;;;;5111388;28;20483;-80
2022/04/29 06:24:20;;;;;;;8.95;5.90;;;7.10;99.90;;;;;;5110853;28;20043;-79
2022/04/29 06:26:47;;;;;;;7.63;5.65;;;7.20;99.90;;;;;;5099636;28;20055;-80
2022/04/29 06:29:12;;;;;;;11.35;5.90;;;7.30;99.90;;;;;;5103744;28;20097;-80
2022/04/29 06:31:38;;;;;;;12.40;6.25;;;7.30;99.90;;;;;;5094307;28;20130;-80
2022/04/29 06:34:04;;;;;;;13.35;6.40;;;7.40;99.90;;;;;;5094256;28;20040;-81
2022/04/29 06:36:30;;;;;;;11.52;6.90;;;7.50;99.90;;;;;;5094147;28;20048;-82
2022/04/29 06:38:56;;;;;;;8.07;5.68;;;7.60;99.90;;;;;;5094208;28;20048;-81
2022/04/29 06:41:22;;;;;;;8.57;6.18;;;7.70;99.90;;;;;;5094269;28;20074;-80
2022/04/29 06:43:48;;;;;;;10.35;4.95;;;7.70;99.90;;;;;;5093678;28;20394;-80
2022/04/29 06:46:15;;;;;;;7.65;4.50;;;7.80;99.90;;;;;;5093215;28;20059;-81
2022/04/29 06:48:41;;;;;;;7.40;4.70;;;7.90;99.90;;;;;;5094052;28;20395;-80
2022/04/29 06:51:07;;;;;;;10.93;4.80;;;8.00;99.90;;;;;;5096753;28;20039;-80
2022/04/29 06:53:32;;;;;;;10.20;4.80;;;8.10;99.90;;;;;;5111753;28;20116;-80
2022/04/29 06:55:58;;;;;;;7.93;4.13;;;8.20;99.90;;;;;;5109459;28;20081;-80
2022/04/29 06:58:24;;;;;;;11.55;4.90;;;8.30;99.90;;;;;;5094665;28;20127;-81
2022/04/29 07:00:50;;;;;;;9.32;4.13;;;8.40;99.90;;;;;;5095233;28;20043;-81
2022/04/29 07:03:16;;;;;;;8.25;3.53;;;8.50;99.90;;;;;;5107629;28;20052;-81
2022/04/29 07:05:42;;;;;;;3.95;3.53;;;8.60;99.90;;;;;;5120389;27;20139;-80
2022/04/29 07:08:07;;;;;;;7.38;3.67;;;8.70;99.90;;;;;;5111634;28;20075;-80
2022/04/29 07:10:34;;;;;;;6.63;2.97;;;8.80;99.90;;;;;;5113281;28;20090;-81
2022/04/29 07:13:03;;;;;;;9.57;3.10;;;8.90;99.90;;;;;;5114079;28;20073;-79
2022/04/29 07:15:29;;;;;;;7.65;2.97;;;8.80;99.90;;;;;;5093697;28;20045;-80
2022/04/29 07:17:55;;;;;;;7.15;2.80;;;9.10;99.90;;;;;;5092518;28;20050;-80
2022/04/29 07:20:20;;;;;;;5.43;2.90;;;9.20;99.90;;;;;;5094466;28;20044;-79
2022/04/29 07:22:46;;;;;;;10.75;1.90;;;9.30;99.90;;;;;;5093316;28;20051;-81
2022/04/29 07:25:13;;;;;;;4.75;1.98;;;9.30;99.90;;;;;;5110429;28;20082;-81
2022/04/29 07:27:40;;;;;;;7.60;2.30;;;9.30;99.90;;;;;;5114214;28;20050;-80
2022/04/29 07:30:08;;;;;;;7.70;2.15;;;9.50;99.90;;;;;;5097011;28;20075;-80
2022/04/29 07:32:34;;;;;;;11.57;1.90;;;9.70;99.90;;;;;;5093407;28;20047;-80
2022/04/29 07:43:14;;;;;;;5.97;1.63;;;9.70;99.90;;;;;;5113423;28;20130;-80
2022/04/29 07:45:40;;;;;;;5.93;1.70;;;9.70;99.90;;;;;;5114009;27;20135;-81
2022/04/29 07:48:06;;;;;;;6.07;1.50;;;9.70;99.90;;;;;;5102519;28;20036;-81
2022/04/29 07:50:35;;;;;;;6.78;1.70;;;9.70;99.90;;;;;;5112054;28;20043;-80
2022/04/29 07:53:02;;;;;;;3.40;1.13;;;9.70;99.90;;;;;;5103658;28;20117;-79
2022/04/29 07:55:29;;;;;;;7.10;1.25;;;9.60;99.90;;;;;;5093511;28;20056;-80
2022/04/29 07:57:56;;;;;;;6.15;1.40;;;9.60;99.90;;;;;;5108481;28;20062;-80
2022/04/29 08:00:22;;;;;;;5.28;2.35;;;9.60;99.90;;;;;;5113862;28;20106;-80
2022/04/29 08:02:48;;;;;;;6.68;1.52;;;9.70;99.90;;;;;;5097480;28;20130;-80
2022/04/29 08:05:14;;;;;;;3.55;1.45;;;9.80;99.90;;;;;;5092551;28;20046;-80
2022/04/29 08:07:40;;;;;;;3.67;1.50;;;9.90;99.90;;;;;;5093996;28;20048;-80
2022/04/29 08:10:06;;;;;;;7.57;1.40;;;10.00;99.90;;;;;;5092309;28;20048;-80
2022/04/29 08:12:33;;;;;;;5.60;1.80;;;10.10;99.90;;;;;;5110188;28;20096;-81
2022/04/29 08:14:59;;;;;;;4.82;1.73;;;10.20;99.90;;;;;;5105414;28;20075;-82
2022/04/29 08:17:27;;;;;;;5.60;1.50;;;10.30;99.90;;;;;;5118765;28;20043;-80
2022/04/29 08:19:54;;;;;;;9.73;2.72;;;10.40;99.90;;;;;;5116028;28;20420;-80
2022/04/29 08:22:20;;;;;;;4.85;1.10;;;10.50;99.90;;;;;;5119618;27;20397;-80
2022/04/29 08:24:46;;;;;;;3.22;1.30;;;10.40;99.90;;;;;;5098655;27;20047;-80
2022/04/29 08:27:13;;;;;;;6.85;2.20;;;10.40;99.90;;;;;;5098966;28;20040;-81
2022/04/29 08:29:39;;;;;;;6.45;2.00;;;10.30;99.90;;;;;;5117963;28;20081;-80
2022/04/29 08:32:05;;;;;;;6.45;1.70;;;10.30;99.90;;;;;;5119516;28;20039;-80
2022/04/29 08:34:33;;;;;;;2.03;1.30;;;10.30;99.90;;;;;;5102270;27;20047;-81
2022/04/29 08:37:03;;;;;;;5.97;1.45;;;10.30;99.90;;;;;;5098937;28;20443;-79
2022/04/29 08:39:30;;;;;;;6.85;1.58;;;10.20;99.90;;;;;;5098424;28;20059;-81
2022/04/29 08:42:00;;;;;;;5.78;1.90;;;10.20;99.90;;;;;;5100549;28;20047;-81
2022/04/29 08:44:29;;;;;;;3.65;1.70;;;10.30;99.90;;;;;;5101930;28;20565;-80
2022/04/29 08:46:56;;;;;;;5.55;1.30;;;10.40;99.90;;;;;;5098641;28;20048;-81
2022/04/29 08:49:24;;;;;;;5.43;1.75;;;10.40;99.90;;;;;;5099768;28;20087;-81
2022/04/29 08:51:50;;;;;;;6.30;1.63;;;10.40;99.90;;;;;;5098516;28;20087;-80
2022/04/29 08:59:57;;;;;;;6.20;1.95;;;10.30;99.90;;;;;;5097620;28;20052;-82
2022/04/29 09:02:25;;;;;;;5.43;1.60;;;10.30;99.90;;;;;;5108195;28;20044;-82
2022/04/29 09:04:53;;;;;;;6.95;1.85;;;10.20;99.90;;;;;;5116995;27;20056;-81
2022/04/29 09:07:19;;;;;;;5.03;2.25;;;10.20;99.90;;;;;;5098235;28;20048;-82
2022/04/29 09:10:05;;;;;;;5.15;1.90;;;10.10;99.90;;;;;;5099798;28;20040;-82
2022/04/29 09:12:31;;;;;;;9.38;1.60;;;10.10;99.90;;;;;;5117180;28;20052;-81
2022/04/29 09:15:14;;;;;;;5.13;1.40;;;10.10;99.90;;;;;;5097757;28;20097;-82
2022/04/29 09:17:48;;;;;;;5.43;2.30;;;10.10;99.90;;;;;;5082187;28;20040;-81
2022/04/29 09:20:16;;;;;;;4.13;1.73;;;10.00;99.90;;;;;;5118408;27;20546;-83
2022/04/29 09:23:00;;;;;;;5.97;1.80;;;10.00;99.90;;;;;;5116171;27;20491;-80
2022/04/29 09:25:35;;;;;;;4.20;1.67;;;10.00;99.90;;;;;;5116698;28;20130;-81
2022/04/29 09:28:03;;;;;;;4.30;1.70;;;10.00;99.90;;;;;;5112150;28;20406;-81
2022/04/29 09:30:35;;;;;;;10.50;3.53;;;10.00;99.90;;;;;;5094565;28;20056;-81
2022/04/29 09:33:01;;;;;;;3.15;1.88;;;10.00;99.90;;;;;;5095593;28;20044;-81
2022/04/29 09:35:37;;;;;;;4.10;2.03;;;10.00;99.90;;;;;;5094630;28;20058;-83
2022/04/29 09:40:49;;;;;;;4.68;1.60;;;10.00;99.90;;;;;;5096895;28;20040;-79
2022/04/29 09:43:15;;;;;;;6.03;1.90;;;9.90;99.90;;;;;;5094118;28;20052;-81
2022/04/29 09:45:40;;;;;;;8.00;1.80;;;10.00;99.90;;;;;;5095152;28;20048;-82
2022/04/29 09:48:09;;;;;;;5.68;2.13;;;10.00;99.90;;;;;;5096140;28;20036;-80
2022/04/29 09:50:46;;;;;;;5.38;1.70;;;10.00;99.90;;;;;;5094098;28;20044;-80
2022/04/29 09:53:20;;;;;;;8.85;2.10;;;10.00;99.90;;;;;;5095830;28;20056;-82
2022/04/29 09:56:05;;;;;;;3.80;1.73;;;10.00;99.90;;;;;;5077240;28;20059;-81
2022/04/29 09:58:31;;;;;;;4.43;1.77;;;10.00;99.90;;;;;;5095931;28;20398;-82
2022/04/29 10:00:58;;;;;;;5.63;1.85;;;10.00;99.90;;;;;;5111110;28;20492;-82
2022/04/29 10:03:25;;;;;;;7.28;1.90;;;10.00;99.90;;;;;;5093439;28;20051;-82
2022/04/29 10:05:51;;;;;;;6.88;1.42;;;10.00;99.90;;;;;;5095561;28;20506;-82
2022/04/29 10:08:19;;;;;;;9.52;1.63;;;10.00;99.90;;;;;;5094141;28;20122;-82
2022/04/29 10:10:47;;;;;;;5.95;1.48;;;10.00;99.90;;;;;;5110543;28;20514;-83
2022/04/29 10:13:18;;;;;;;7.28;1.98;;;10.00;99.90;;;;;;5106587;28;20483;-82
2022/04/29 10:15:46;;;;;;;3.30;1.55;;;10.00;99.90;;;;;;5116085;28;20043;-79
2022/04/29 10:21:17;;;;;;;7.45;2.08;;;10.00;99.90;;;;;;5103567;28;20114;-82
2022/04/29 10:23:51;;;;;;;8.13;2.28;;;10.00;99.90;;;;;;5109240;28;20039;-83
2022/04/29 10:26:18;;;;;;;4.47;1.73;;;10.10;99.90;;;;;;5113745;28;20047;-81
2022/04/29 10:28:45;;;;;;;5.55;2.05;;;10.10;99.90;;;;;;5100165;28;20507;-82
2022/04/29 10:31:17;;;;;;;9.77;2.08;;;10.00;99.90;;;;;;5076605;28;20056;-82
2022/04/29 10:33:43;;;;;;;6.57;2.28;;;10.00;99.90;;;;;;5107623;28;20048;-80
2022/04/29 10:36:10;;;;;;;6.45;2.03;;;10.10;99.90;;;;;;5096879;28;20043;-80
2022/04/29 10:38:40;;;;;;;5.95;2.15;;;10.10;99.90;;;;;;5109850;28;20043;-82
2022/04/29 10:41:06;;;;;;;6.88;2.95;;;10.10;99.90;;;;;;5094085;28;20052;-82
2022/04/29 10:43:46;;;;;;;6.25;2.67;;;10.10;99.90;;;;;;5094997;28;20043;-80
2022/04/29 10:46:15;;;;;;;6.88;2.67;;;10.20;99.90;;;;;;5092981;28;20048;-82
2022/04/29 10:48:42;;;;;;;8.05;2.10;;;10.20;99.90;;;;;;5093713;28;20043;-82
2022/04/29 10:51:11;;;;;;;8.80;2.88;;;10.20;99.90;;;;;;5094887;28;20048;-82
2022/04/29 10:53:40;;;;;;;3.17;2.03;;;10.30;99.90;;;;;;5094021;28;20044;-83
2022/04/29 10:56:28;;;;;;;4.15;2.00;;;10.30;99.90;;;;;;5093891;28;20055;-83
2022/04/29 10:59:05;;;;;;;3.95;1.90;;;10.40;99.90;;;;;;5094324;28;20131;-82
2022/04/29 11:01:35;;;;;;;6.78;2.30;;;10.40;99.90;;;;;;5094978;28;20048;-84
2022/04/29 11:04:16;;;;;;;8.88;3.10;;;10.50;99.90;;;;;;5093514;28;20130;-81
2022/04/29 11:06:47;;;;;;;5.65;3.70;;;10.60;99.90;;;;;;5092392;28;20131;-83
2022/04/29 11:09:47;;;;;;;7.45;3.45;;;10.70;99.90;;;;;;5093415;28;20093;-81
2022/04/29 11:12:33;;;;;;;4.63;2.25;;;10.70;99.90;;;;;;5093524;28;20052;-84
2022/04/29 11:15:21;;;;;;;5.68;2.40;;;10.70;99.90;;;;;;5093666;28;20135;-82
2022/04/29 11:17:47;;;;;;;5.93;2.75;;;10.70;99.90;;;;;;5109161;28;20083;-80
2022/04/29 11:20:19;;;;;;;5.85;2.05;;;10.70;99.90;;;;;;5093586;28;20046;-82
2022/04/29 11:25:54;;;;;;;3.75;1.95;;;10.80;99.90;;;;;;5094247;28;20170;-83
2022/04/29 11:28:20;;;;;;;3.20;2.10;;;10.60;99.90;;;;;;5092157;28;20048;-82
2022/04/29 11:30:48;;;;;;;4.93;1.70;;;10.60;99.90;;;;;;5094005;28;20131;-80
2022/04/29 11:33:14;;;;;;;7.20;2.45;;;10.50;99.90;;;;;;5094115;28;20498;-81
2022/04/29 11:35:40;;;;;;;7.43;2.00;;;10.50;99.90;;;;;;5091866;28;20042;-82
2022/04/29 11:38:10;;;;;;;4.38;2.00;;;10.40;99.90;;;;;;5092696;28;20051;-80
2022/04/29 11:40:42;;;;;;;4.55;2.08;;;10.40;99.90;;;;;;5092616;28;20051;-81
2022/04/29 11:43:10;;;;;;;8.27;2.45;;;10.30;99.90;;;;;;5093123;28;20087;-81
2022/04/29 11:45:38;;;;;;;7.53;3.15;;;10.40;99.90;;;;;;5092173;28;20145;-81
2022/04/29 11:48:07;;;;;;;5.00;2.00;;;10.40;99.90;;;;;;5092887;28;20044;-82
2022/04/29 11:50:34;;;;;;;4.50;1.98;;;10.40;99.90;;;;;;5093887;28;20497;-81
2022/04/29 11:53:08;;;;;;;8.00;2.20;;;10.40;99.90;;;;;;5092237;28;20059;-81
2022/04/29 11:55:34;;;;;;;7.18;2.47;;;10.30;99.90;;;;;;5092954;28;20515;-80
2022/04/29 11:58:00;;;;;;;4.38;1.77;;;10.40;99.90;;;;;;5092584;28;20475;-81
2022/04/29 12:00:29;;;;;;;5.70;2.63;;;10.40;99.90;;;;;;5093594;28;20048;-80
2022/04/29 12:02:56;;;;;;;8.93;2.13;;;10.40;99.90;;;;;;5091652;28;20532;-81
2022/04/29 12:05:27;;;;;;;7.47;2.30;;;10.40;99.90;;;;;;5093730;28;20040;-82
2022/04/29 12:07:54;;;;;;;8.00;2.17;;;10.40;99.90;;;;;;5093662;28;20048;-82
2022/04/29 12:10:28;;;;;;;6.15;2.00;;;10.50;99.90;;;;;;5091559;28;20487;-81
2022/04/29 12:12:58;;;;;;;7.50;2.33;;;10.50;99.90;;;;;;5093806;28;20040;-81
2022/04/29 12:15:28;;;;;;;5.40;1.88;;;10.50;99.90;;;;;;5092207;28;20036;-79
2022/04/29 12:17:59;;;;;;;4.25;1.52;;;10.60;99.90;;;;;;5092699;28;20044;-82
2022/04/29 12:20:26;;;;;;;4.13;2.22;;;10.60;99.90;;;;;;5093676;28;20166;-81
2022/04/29 12:22:52;;;;;;;5.15;2.58;;;10.60;99.90;;;;;;5092275;28;20052;-81
2022/04/29 12:25:21;;;;;;;4.90;2.17;;;10.70;99.90;;;;;;5092934;28;20134;-83
2022/04/29 12:28:08;;;;;;;6.25;2.67;;;10.70;99.90;;;;;;5093483;28;20051;-83
2022/04/29 12:36:13;;;;;;;8.73;2.40;;;11.00;99.90;;;;;;5093196;28;20048;-81
2022/04/29 12:38:44;;;;;;;6.80;2.10;;;11.00;99.90;;;;;;5091958;28;20059;-82
2022/04/29 12:41:24;;;;;;;8.90;2.35;;;11.10;99.90;;;;;;5092915;28;20051;-81
2022/04/29 12:44:05;;;;;;;9.70;1.80;;;11.10;99.90;;;;;;5093324;28;20048;-82
2022/04/29 12:46:32;;;;;;;6.65;2.20;;;11.00;99.90;;;;;;5092555;28;20044;-81
2022/04/29 12:48:58;;;;;;;5.00;2.17;;;10.90;99.90;;;;;;5109164;28;20483;-81
2022/04/29 12:51:31;;;;;;;5.82;2.15;;;10.90;99.90;;;;;;5092256;28;20127;-80
2022/04/29 12:53:58;;;;;;;7.18;2.35;;;10.90;99.90;;;;;;5098856;28;20036;-80
2022/04/29 12:56:33;;;;;;;4.82;1.80;;;10.90;99.90;;;;;;5113597;28;20429;-83
2022/04/29 12:59:02;;;;;;;3.95;2.08;;;10.90;99.90;;;;;;5114905;28;20040;-81
2022/04/29 13:01:40;;;;;;;5.82;2.25;;;11.00;99.90;;;;;;5114411;28;20058;-77
2022/04/29 13:04:06;;;;;;;5.82;1.50;;;11.10;99.90;;;;;;5115748;27;20047;-77
2022/04/29 13:06:33;;;;;;;3.83;1.48;;;11.10;99.90;;;;;;5096049;28;20044;-78
2022/04/29 13:09:00;;;;;;;6.82;1.58;;;11.00;99.90;;;;;;5096553;28;20032;-79
2022/04/29 13:11:26;;;;;;;5.72;2.13;;;11.00;99.90;;;;;;5106154;28;20043;-78
2022/04/29 13:13:53;;;;;;;4.80;1.90;;;10.90;99.90;;;;;;5101823;28;20044;-80
2022/04/29 13:16:21;;;;;;;1.75;1.58;;;10.90;99.90;;;;;;5095989;28;20063;-80
2022/04/29 13:18:47;;;;;;;5.95;2.28;;;11.00;99.90;;;;;;5097029;28;20040;-80
2022/04/29 13:21:14;;;;;;;2.10;1.42;;;11.10;99.90;;;;;;5094888;28;20044;-79
2022/04/29 13:23:44;;;;;;;3.97;1.80;;;11.00;99.90;;;;;;5096654;28;20040;-80
2022/04/29 13:26:13;;;;;;;2.33;1.73;;;11.00;99.90;;;;;;5103176;28;20056;-79